Time;durP1;ratioP1;P1;durP2;ratioP2;P2;SDS_P1;SDS_P2;PMS_P1;PMS_P2;Temp;Humidity;BMP_temperature;BMP_pressure;BME280_temperature;BME280_humidity;BME280_pressure;Samples;Min_cycle;Max_cycle;Signal;HPM_P1;HPM_P2
2024/01/30 00:01:39;;;;;;;0.20;0.20;;;2.00;99.90;;;;;;4996189;28;20028;-66
2024/01/30 00:04:04;;;;;;;0.00;0.00;;;2.10;99.90;;;;;;4996436;28;20034;-66
2024/01/30 00:06:31;;;;;;;0.00;0.00;;;2.10;99.90;;;;;;4997133;28;20068;-66
2024/01/30 00:08:56;;;;;;;;;;;1.90;99.90;;;;;;4993770;28;20041;-66
2024/01/30 00:11:23;;;;;;;0.00;0.00;;;1.90;99.90;;;;;;4999998;28;20477;-66
2024/01/30 00:13:48;;;;;;;5.28;0.52;;;2.00;99.90;;;;;;4996675;28;20761;-65
2024/01/30 00:16:24;;;;;;;0.00;0.00;;;2.00;99.90;;;;;;4997332;28;20035;-66
2024/01/30 00:18:53;;;;;;;0.00;0.00;;;2.10;99.90;;;;;;4995659;28;20100;-66
2024/01/30 00:21:19;;;;;;;0.20;0.20;;;1.90;99.90;;;;;;5014284;28;20037;-66
2024/01/30 00:23:45;;;;;;;0.00;0.00;;;1.70;99.90;;;;;;4996317;28;20054;-66
2024/01/30 00:26:11;;;;;;;0.00;0.00;;;1.80;99.90;;;;;;4994673;28;20120;-66
2024/01/30 00:28:38;;;;;;;0.00;0.00;;;1.80;99.90;;;;;;4994787;28;20044;-66
2024/01/30 00:31:04;;;;;;;0.70;0.47;;;1.80;99.90;;;;;;4996299;28;20513;-66
2024/01/30 00:33:30;;;;;;;0.00;0.00;;;1.80;99.90;;;;;;5000402;28;20022;-67
2024/01/30 00:35:56;;;;;;;0.00;0.00;;;1.80;99.90;;;;;;4995465;28;20026;-66
2024/01/30 00:38:22;;;;;;;0.00;0.00;;;1.70;99.90;;;;;;4996285;28;20103;-65
2024/01/30 00:40:48;;;;;;;0.00;0.00;;;1.60;99.90;;;;;;5002074;28;20030;-66
2024/01/30 00:43:14;;;;;;;0.00;0.00;;;1.60;99.90;;;;;;4995849;28;20038;-63
2024/01/30 00:45:39;;;;;;;0.33;0.23;;;1.60;99.90;;;;;;4999483;28;20164;-63
2024/01/30 00:48:05;;;;;;;0.00;0.00;;;1.60;99.90;;;;;;4997902;28;20496;-63
2024/01/30 00:50:31;;;;;;;0.10;0.10;;;1.60;99.90;;;;;;4999240;28;20022;-64
2024/01/30 00:52:57;;;;;;;0.03;0.03;;;1.50;99.90;;;;;;5013136;28;20188;-62
2024/01/30 00:55:22;;;;;;;0.10;0.10;;;1.50;99.90;;;;;;4999482;28;20030;-65
2024/01/30 00:57:48;;;;;;;0.00;0.00;;;1.50;99.90;;;;;;5002387;28;20022;-63
2024/01/30 01:00:16;;;;;;;0.10;0.10;;;1.60;99.90;;;;;;4997614;28;20025;-64
2024/01/30 01:02:43;;;;;;;0.00;0.00;;;1.70;99.90;;;;;;4998352;28;20678;-62
2024/01/30 01:05:09;;;;;;;0.00;0.00;;;1.70;99.90;;;;;;4995752;28;20045;-62
2024/01/30 01:07:35;;;;;;;0.00;0.00;;;1.70;99.90;;;;;;4996388;28;20037;-62
2024/01/30 01:10:02;;;;;;;0.00;0.00;;;1.70;99.90;;;;;;4998240;28;20113;-64
2024/01/30 01:12:28;;;;;;;0.00;0.00;;;1.60;99.90;;;;;;4995677;28;20033;-63
2024/01/30 01:14:53;;;;;;;0.13;0.13;;;1.70;99.90;;;;;;4999707;28;20029;-62
2024/01/30 01:17:19;;;;;;;0.00;0.00;;;1.70;99.90;;;;;;4998717;28;20119;-63
2024/01/30 01:19:45;;;;;;;0.00;0.00;;;1.70;99.90;;;;;;4999264;28;20057;-62
2024/01/30 01:22:11;;;;;;;0.00;0.00;;;1.60;99.90;;;;;;5001784;28;20030;-63
2024/01/30 01:24:36;;;;;;;0.10;0.10;;;1.60;99.90;;;;;;4995940;28;20470;-63
2024/01/30 01:27:02;;;;;;;0.00;0.00;;;1.60;99.90;;;;;;4998186;28;20437;-64
2024/01/30 01:29:29;;;;;;;0.00;0.00;;;1.50;99.90;;;;;;4994555;28;20028;-63
2024/01/30 01:31:58;;;;;;;0.00;0.00;;;1.70;99.90;;;;;;4998500;28;20025;-62
2024/01/30 01:34:24;;;;;;;0.00;0.00;;;1.60;99.90;;;;;;4999222;28;20075;-62
2024/01/30 01:36:50;;;;;;;0.00;0.00;;;1.50;99.90;;;;;;5014575;28;20037;-62
2024/01/30 01:39:16;;;;;;;0.65;0.65;;;1.50;99.90;;;;;;4998262;28;20029;-62
2024/01/30 01:41:41;;;;;;;0.00;0.00;;;1.50;99.90;;;;;;4993618;28;20022;-62
2024/01/30 01:44:08;;;;;;;0.00;0.00;;;1.50;99.90;;;;;;5003494;28;20148;-62
2024/01/30 01:46:34;;;;;;;1.10;1.10;;;1.50;99.90;;;;;;4997979;28;20632;-62
2024/01/30 01:49:05;;;;;;;0.00;0.00;;;1.60;99.90;;;;;;4997099;28;20068;-62
2024/01/30 01:51:33;;;;;;;0.00;0.00;;;1.50;99.90;;;;;;4996069;28;20041;-63
2024/01/30 01:54:04;;;;;;;0.00;0.00;;;1.40;99.90;;;;;;4998429;28;20041;-62
2024/01/30 01:56:31;;;;;;;0.00;0.00;;;1.50;99.90;;;;;;4994868;28;20110;-63
2024/01/30 01:59:03;;;;;;;0.00;0.00;;;1.40;99.90;;;;;;4996106;28;20653;-65
2024/01/30 02:01:29;;;;;;;0.00;0.00;;;1.40;99.90;;;;;;4996832;28;20030;-63
2024/01/30 02:03:55;;;;;;;0.00;0.00;;;1.50;99.90;;;;;;5002202;28;20582;-64
2024/01/30 02:06:21;;;;;;;0.00;0.00;;;1.50;99.90;;;;;;4999155;28;20037;-63
2024/01/30 02:08:47;;;;;;;0.28;0.28;;;1.50;99.90;;;;;;4997945;28;20030;-63
2024/01/30 02:11:13;;;;;;;0.00;0.00;;;1.50;99.90;;;;;;4992573;28;20087;-63
2024/01/30 02:13:38;;;;;;;0.00;0.00;;;1.50;99.90;;;;;;5002400;28;20025;-62
2024/01/30 02:16:04;;;;;;;0.00;0.00;;;1.40;99.90;;;;;;4998054;28;20150;-62
2024/01/30 02:18:30;;;;;;;0.00;0.00;;;1.40;99.90;;;;;;4991709;28;20029;-63
2024/01/30 02:20:58;;;;;;;0.37;0.27;;;1.30;99.90;;;;;;4995352;28;20032;-62
2024/01/30 02:23:25;;;;;;;0.00;0.00;;;1.30;99.90;;;;;;5001632;28;20025;-65
2024/01/30 02:25:52;;;;;;;0.65;0.25;;;1.30;99.90;;;;;;4996683;28;20620;-64
2024/01/30 02:28:19;;;;;;;0.00;0.00;;;1.40;99.90;;;;;;4996977;28;20025;-64
2024/01/30 02:30:45;;;;;;;0.08;0.08;;;1.30;99.90;;;;;;4997259;28;20992;-62
2024/01/30 02:33:11;;;;;;;0.03;0.03;;;1.20;99.90;;;;;;4999079;28;20121;-64
2024/01/30 02:35:37;;;;;;;0.00;0.00;;;1.10;99.90;;;;;;4997836;28;20162;-64
2024/01/30 02:38:03;;;;;;;0.00;0.00;;;1.20;99.90;;;;;;4997457;28;20058;-62
2024/01/30 02:40:29;;;;;;;0.00;0.00;;;1.30;99.90;;;;;;4994009;28;20030;-62
2024/01/30 02:42:55;;;;;;;0.13;0.13;;;1.20;99.90;;;;;;4996841;28;20037;-62
2024/01/30 02:45:20;;;;;;;0.00;0.00;;;1.10;99.90;;;;;;4996518;28;21432;-63
2024/01/30 02:47:46;;;;;;;0.00;0.00;;;1.10;99.90;;;;;;4994933;28;20030;-62
2024/01/30 02:50:12;;;;;;;0.00;0.00;;;1.10;99.90;;;;;;4996701;28;20025;-63
2024/01/30 02:52:37;;;;;;;0.00;0.00;;;1.20;99.90;;;;;;4993314;28;20026;-63
2024/01/30 02:55:03;;;;;;;0.00;0.00;;;1.20;99.90;;;;;;4997013;28;20084;-64
2024/01/30 02:57:29;;;;;;;0.00;0.00;;;1.10;99.90;;;;;;4996908;28;20056;-63
2024/01/30 02:59:55;;;;;;;0.00;0.00;;;1.20;99.90;;;;;;4996791;28;20104;-63
2024/01/30 03:02:20;;;;;;;0.93;0.60;;;1.20;99.90;;;;;;4997840;28;20519;-62
2024/01/30 03:04:46;;;;;;;0.00;0.00;;;1.20;99.90;;;;;;4996657;28;20026;-62
2024/01/30 03:07:12;;;;;;;0.00;0.00;;;1.30;99.90;;;;;;5015621;28;20113;-63
2024/01/30 03:09:38;;;;;;;0.07;0.07;;;1.30;99.90;;;;;;4996793;28;20711;-63
2024/01/30 03:12:04;;;;;;;0.10;0.10;;;1.20;99.90;;;;;;4993379;28;20076;-63
2024/01/30 03:14:31;;;;;;;0.00;0.00;;;1.20;99.90;;;;;;4997420;28;20113;-63
2024/01/30 03:16:57;;;;;;;;;;;1.20;99.90;;;;;;4998693;28;20442;-64
2024/01/30 03:19:23;;;;;;;0.00;0.00;;;1.20;99.90;;;;;;4994785;28;19905;-63
2024/01/30 03:21:49;;;;;;;0.00;0.00;;;1.10;99.90;;;;;;4994766;28;20022;-63
2024/01/30 03:24:14;;;;;;;0.00;0.00;;;1.00;99.90;;;;;;4991874;28;20018;-63
2024/01/30 03:26:40;;;;;;;0.07;0.07;;;1.00;99.90;;;;;;4996927;28;20033;-63
2024/01/30 03:29:06;;;;;;;0.00;0.00;;;0.90;99.90;;;;;;4995827;28;20022;-64
2024/01/30 03:31:32;;;;;;;1.77;0.40;;;0.90;99.90;;;;;;4996816;28;20024;-63
2024/01/30 03:33:58;;;;;;;0.00;0.00;;;0.90;99.90;;;;;;4991841;28;20030;-64
2024/01/30 03:36:23;;;;;;;0.00;0.00;;;1.00;99.90;;;;;;4996602;28;20099;-62
2024/01/30 03:38:49;;;;;;;0.00;0.00;;;0.90;99.90;;;;;;5001010;28;20125;-64
2024/01/30 03:41:15;;;;;;;0.00;0.00;;;0.90;99.90;;;;;;4996510;28;20018;-63
2024/01/30 03:43:40;;;;;;;0.10;0.10;;;0.90;99.90;;;;;;4995805;28;20022;-63
2024/01/30 03:46:06;;;;;;;1.63;0.50;;;0.90;99.90;;;;;;4991960;28;20037;-63
2024/01/30 03:48:32;;;;;;;0.00;0.00;;;0.80;99.90;;;;;;4997635;28;20524;-63
2024/01/30 03:50:58;;;;;;;0.10;0.10;;;0.90;99.90;;;;;;5002103;28;20482;-63
2024/01/30 03:53:23;;;;;;;0.00;0.00;;;0.80;99.90;;;;;;4996106;28;20022;-63
2024/01/30 03:55:49;;;;;;;0.00;0.00;;;0.70;99.90;;;;;;4995933;28;20042;-64
2024/01/30 03:58:15;;;;;;;0.07;0.07;;;0.60;99.90;;;;;;4995651;28;20018;-64
2024/01/30 04:00:40;;;;;;;0.00;0.00;;;0.50;99.90;;;;;;4994739;28;20029;-63
2024/01/30 04:03:07;;;;;;;0.00;0.00;;;0.50;99.90;;;;;;4996063;28;20022;-63
2024/01/30 04:05:32;;;;;;;0.00;0.00;;;0.50;99.90;;;;;;4997351;28;20377;-63
2024/01/30 04:07:58;;;;;;;0.00;0.00;;;0.60;99.90;;;;;;4996091;28;20026;-65
2024/01/30 04:10:27;;;;;;;0.00;0.00;;;0.50;99.90;;;;;;4996662;28;20038;-62
2024/01/30 04:12:53;;;;;;;0.85;0.85;;;0.50;99.90;;;;;;4995969;28;20535;-63
2024/01/30 04:15:19;;;;;;;1.38;1.35;;;0.40;99.90;;;;;;4991716;28;20014;-63
2024/01/30 04:17:45;;;;;;;0.00;0.00;;;0.40;99.90;;;;;;4996511;28;20026;-62
2024/01/30 04:20:20;;;;;;;0.00;0.00;;;0.50;99.90;;;;;;4993088;28;20036;-64
2024/01/30 04:22:46;;;;;;;0.00;0.00;;;0.40;99.90;;;;;;4996833;28;20022;-63
2024/01/30 04:25:12;;;;;;;;;;;0.30;99.90;;;;;;4996015;28;20041;-63
2024/01/30 04:27:38;;;;;;;0.00;0.00;;;0.30;99.90;;;;;;4994307;28;19931;-62
2024/01/30 04:30:05;;;;;;;0.00;0.00;;;0.30;99.90;;;;;;4996563;28;20030;-63
2024/01/30 04:32:30;;;;;;;0.08;0.08;;;0.20;99.90;;;;;;4999132;28;20375;-64
2024/01/30 04:34:56;;;;;;;0.00;0.00;;;0.20;99.90;;;;;;4996863;28;20117;-62
2024/01/30 04:37:22;;;;;;;1.60;1.03;;;0.20;99.90;;;;;;4995302;28;20092;-62
2024/01/30 04:39:47;;;;;;;0.00;0.00;;;0.30;99.90;;;;;;4990540;28;20072;-62
2024/01/30 04:42:13;;;;;;;0.00;0.00;;;0.30;99.90;;;;;;4996703;28;20033;-62
2024/01/30 04:44:38;;;;;;;0.00;0.00;;;0.20;99.90;;;;;;5003915;28;20034;-62
2024/01/30 04:47:05;;;;;;;0.00;0.00;;;0.10;99.90;;;;;;4999123;28;20037;-62
2024/01/30 04:49:32;;;;;;;0.08;0.08;;;0.10;99.90;;;;;;4998586;28;20034;-64
2024/01/30 04:51:58;;;;;;;0.00;0.00;;;0.00;99.90;;;;;;5020964;28;20091;-63
2024/01/30 04:54:24;;;;;;;0.00;0.00;;;0.00;99.90;;;;;;5000324;28;20381;-63
2024/01/30 04:56:49;;;;;;;0.00;0.00;;;0.00;99.90;;;;;;4999134;28;20049;-62
2024/01/30 04:59:15;;;;;;;1.90;1.40;;;0.00;99.90;;;;;;4999371;28;20026;-63
2024/01/30 05:01:41;;;;;;;0.00;0.00;;;0.10;99.90;;;;;;4994924;28;20026;-63
2024/01/30 05:04:09;;;;;;;0.00;0.00;;;0.10;99.90;;;;;;4999323;28;20033;-62
2024/01/30 05:06:35;;;;;;;0.00;0.00;;;0.10;99.90;;;;;;4995793;28;20110;-63
2024/01/30 05:09:01;;;;;;;0.00;0.00;;;0.00;99.90;;;;;;4999294;28;20485;-64
2024/01/30 05:11:26;;;;;;;0.00;0.00;;;0.00;99.90;;;;;;4999127;28;20450;-64
2024/01/30 05:13:52;;;;;;;0.20;0.20;;;-0.10;99.90;;;;;;4992789;28;20112;-62
2024/01/30 05:16:18;;;;;;;0.00;0.00;;;-0.10;99.90;;;;;;4998303;28;20018;-62
2024/01/30 05:18:43;;;;;;;0.00;0.00;;;-0.10;99.90;;;;;;4994898;28;20022;-63
2024/01/30 05:21:10;;;;;;;0.00;0.00;;;-0.10;99.90;;;;;;5000240;28;20034;-62
2024/01/30 05:23:36;;;;;;;;;;;0.00;99.90;;;;;;4997469;28;20068;-65
2024/01/30 05:26:02;;;;;;;0.00;0.00;;;0.00;99.90;;;;;;5000028;28;20306;-65
2024/01/30 05:28:30;;;;;;;0.00;0.00;;;0.00;99.90;;;;;;4998918;28;20053;-65
2024/01/30 05:30:56;;;;;;;2.50;1.08;;;-0.10;99.90;;;;;;5014590;28;20037;-65
2024/01/30 05:33:21;;;;;;;0.00;0.00;;;-0.10;99.90;;;;;;5000547;28;20038;-65
2024/01/30 05:35:48;;;;;;;0.00;0.00;;;-0.10;99.90;;;;;;5014901;28;20021;-64
2024/01/30 05:38:15;;;;;;;0.00;0.00;;;-0.20;99.90;;;;;;5000763;28;20088;-64
2024/01/30 05:40:41;;;;;;;0.00;0.00;;;-0.10;99.90;;;;;;5005347;28;20437;-65
2024/01/30 05:43:07;;;;;;;0.00;0.00;;;-0.10;99.90;;;;;;5000620;28;20132;-66
2024/01/30 05:45:35;;;;;;;0.00;0.00;;;-0.10;99.90;;;;;;4999175;28;20122;-64
2024/01/30 05:48:01;;;;;;;0.00;0.00;;;-0.20;99.90;;;;;;5004356;28;20022;-64
2024/01/30 05:50:26;;;;;;;0.00;0.00;;;-0.20;99.90;;;;;;4994667;28;20088;-65
2024/01/30 05:52:53;;;;;;;0.20;0.20;;;-0.20;99.90;;;;;;5000275;28;20087;-64
2024/01/30 05:55:19;;;;;;;0.00;0.00;;;-0.20;99.90;;;;;;5016055;28;20017;-65
2024/01/30 05:57:44;;;;;;;0.00;0.00;;;-0.10;99.90;;;;;;4996385;28;20394;-65
2024/01/30 06:00:10;;;;;;;0.10;0.07;;;-0.20;99.90;;;;;;5001285;28;20097;-65
2024/01/30 06:02:36;;;;;;;0.00;0.00;;;-0.20;99.90;;;;;;5000786;28;20540;-65
2024/01/30 06:05:02;;;;;;;0.00;0.00;;;-0.30;99.90;;;;;;5000654;28;20030;-65
2024/01/30 06:07:28;;;;;;;0.37;0.23;;;-0.30;99.90;;;;;;4997967;28;20022;-66
2024/01/30 06:09:53;;;;;;;0.00;0.00;;;-0.40;99.90;;;;;;5000076;28;20029;-65
2024/01/30 06:12:19;;;;;;;0.00;0.00;;;-0.30;99.90;;;;;;4995643;28;20061;-65
2024/01/30 06:14:45;;;;;;;0.00;0.00;;;-0.30;99.90;;;;;;5000677;28;20014;-65
2024/01/30 06:17:11;;;;;;;0.00;0.00;;;-0.30;99.90;;;;;;4994946;28;20014;-65
2024/01/30 06:19:39;;;;;;;0.00;0.00;;;-0.30;99.90;;;;;;4999444;28;20072;-64
2024/01/30 06:22:05;;;;;;;0.47;0.47;;;-0.30;99.90;;;;;;4997954;28;20053;-64
2024/01/30 06:24:31;;;;;;;;;;;-0.30;99.90;;;;;;4997737;28;20069;-65
2024/01/30 06:26:56;;;;;;;0.00;0.00;;;-0.30;99.90;;;;;;4998800;28;19957;-64
2024/01/30 06:29:24;;;;;;;0.00;0.00;;;-0.30;99.90;;;;;;5018022;28;20018;-64
2024/01/30 06:31:50;;;;;;;0.00;0.00;;;-0.20;99.90;;;;;;4998006;28;20049;-65
2024/01/30 06:34:16;;;;;;;0.00;0.00;;;-0.10;99.90;;;;;;5011092;28;20052;-62
2024/01/30 06:36:41;;;;;;;0.00;0.00;;;0.20;99.90;;;;;;4998668;28;20029;-62
2024/01/30 06:39:07;;;;;;;0.00;0.00;;;0.50;99.90;;;;;;4998564;28;20413;-64
2024/01/30 06:41:33;;;;;;;0.63;0.33;;;0.80;99.90;;;;;;5002274;28;20513;-63
2024/01/30 06:43:59;;;;;;;0.00;0.00;;;1.20;99.90;;;;;;4999378;28;20508;-63
2024/01/30 06:46:25;;;;;;;0.00;0.00;;;1.70;99.90;;;;;;4997205;28;20030;-62
2024/01/30 06:48:50;;;;;;;0.10;0.10;;;2.20;99.90;;;;;;5015884;28;20033;-62
2024/01/30 06:51:16;;;;;;;0.00;0.00;;;2.60;99.90;;;;;;5000130;28;20026;-62
2024/01/30 06:53:42;;;;;;;0.63;0.63;;;3.10;99.90;;;;;;4998743;28;20501;-62
2024/01/30 06:56:08;;;;;;;0.00;0.00;;;3.50;99.90;;;;;;4999424;28;20049;-63
2024/01/30 06:58:34;;;;;;;0.10;0.10;;;3.70;99.90;;;;;;4997071;28;20717;-63
2024/01/30 07:00:59;;;;;;;0.00;0.00;;;3.50;99.90;;;;;;4999589;28;20033;-63
2024/01/30 07:03:25;;;;;;;0.00;0.00;;;3.60;99.90;;;;;;5013740;28;20022;-62
2024/01/30 07:05:51;;;;;;;0.00;0.00;;;3.70;99.90;;;;;;4994390;28;20119;-62
2024/01/30 07:08:17;;;;;;;0.00;0.00;;;4.10;99.90;;;;;;4997794;28;20033;-63
2024/01/30 07:10:44;;;;;;;0.03;0.03;;;4.30;99.90;;;;;;4998538;28;20026;-63
2024/01/30 07:13:11;;;;;;;0.00;0.00;;;4.50;99.90;;;;;;4997422;28;20064;-63
2024/01/30 07:15:37;;;;;;;;;;;4.40;99.90;;;;;;4996840;28;20460;-63
2024/01/30 07:18:04;;;;;;;0.00;0.00;;;4.80;99.90;;;;;;4995796;28;19910;-63
2024/01/30 07:20:31;;;;;;;0.00;0.00;;;5.20;99.90;;;;;;4999562;28;20117;-63
2024/01/30 07:22:58;;;;;;;0.00;0.00;;;5.50;99.90;;;;;;4995212;28;21052;-63
2024/01/30 07:25:26;;;;;;;;;;;5.60;99.90;;;;;;4997808;28;20025;-63
2024/01/30 07:27:58;;;;;;;0.00;0.00;;;6.00;99.90;;;;;;5090977;27;20789;-62
2024/01/30 07:30:24;;;;;;;0.00;0.00;;;6.40;99.90;;;;;;5095194;28;20067;-62
2024/01/30 07:32:50;;;;;;;0.00;0.00;;;6.50;99.90;;;;;;5091759;28;20035;-63
2024/01/30 07:35:16;;;;;;;0.00;0.00;;;7.10;99.90;;;;;;5094383;28;20030;-63
2024/01/30 07:37:41;;;;;;;0.00;0.00;;;7.60;99.90;;;;;;5089023;28;20094;-62
2024/01/30 07:40:08;;;;;;;0.97;0.60;;;6.80;99.90;;;;;;5092754;28;20738;-61
2024/01/30 07:42:33;;;;;;;0.47;0.28;;;7.10;99.90;;;;;;5094889;28;20026;-62
2024/01/30 07:45:00;;;;;;;0.10;0.10;;;7.20;99.90;;;;;;5095015;28;20020;-62
2024/01/30 07:47:26;;;;;;;0.00;0.00;;;7.70;99.90;;;;;;5095010;28;20031;-63
2024/01/30 07:49:52;;;;;;;0.00;0.00;;;8.80;99.90;;;;;;5092874;28;20478;-62
2024/01/30 07:52:18;;;;;;;0.10;0.10;;;9.10;99.90;;;;;;5090170;28;20020;-61
2024/01/30 07:58:27;;;;;;;0.17;0.17;;;8.90;99.90;;;;;;5030825;28;20280;-61
2024/01/30 08:00:53;;;;;;;;;;;8.90;99.90;;;;;;5021497;28;20025;-62
2024/01/30 08:03:19;;;;;;;0.30;0.10;;;9.50;99.90;;;;;;5060066;28;20367;-63
2024/01/30 08:05:44;;;;;;;0.50;0.30;;;9.60;99.90;;;;;;5092102;28;20016;-63
2024/01/30 08:08:10;;;;;;;0.00;0.00;;;10.10;99.30;;;;;;5082171;28;20069;-62
2024/01/30 08:10:36;;;;;;;0.00;0.00;;;9.80;98.40;;;;;;5073804;28;20031;-62
2024/01/30 08:13:02;;;;;;;0.32;0.32;;;9.70;98.10;;;;;;5073845;28;20016;-62
2024/01/30 08:15:27;;;;;;;0.00;0.00;;;9.90;98.50;;;;;;5072080;28;20514;-62
2024/01/30 08:17:57;;;;;;;0.00;0.00;;;10.30;97.60;;;;;;5073779;28;20016;-62
2024/01/30 08:20:23;;;;;;;0.00;0.00;;;10.20;97.10;;;;;;5068235;28;20365;-62
2024/01/30 08:22:49;;;;;;;0.22;0.22;;;9.50;98.00;;;;;;5074441;28;20051;-62
2024/01/30 08:25:15;;;;;;;0.53;0.37;;;9.20;98.20;;;;;;5073088;28;20475;-63
2024/01/30 08:27:41;;;;;;;0.20;0.20;;;8.40;99.80;;;;;;5072596;28;20108;-63
2024/01/30 08:30:07;;;;;;;0.00;0.00;;;8.10;99.90;;;;;;5074888;28;20024;-62
2024/01/30 08:32:33;;;;;;;0.00;0.00;;;8.60;99.90;;;;;;5072722;28;20656;-63
2024/01/30 08:34:59;;;;;;;0.00;0.00;;;9.80;98.80;;;;;;5073988;28;20082;-63
2024/01/30 08:37:25;;;;;;;1.75;0.43;;;10.50;96.80;;;;;;5070621;28;20480;-63
2024/01/30 08:39:52;;;;;;;0.00;0.00;;;11.10;95.80;;;;;;5056381;28;20039;-62
2024/01/30 08:42:22;;;;;;;0.30;0.30;;;11.50;95.00;;;;;;5060323;28;20395;-62
2024/01/30 08:44:49;;;;;;;0.00;0.00;;;12.10;93.60;;;;;;5057807;28;20051;-62
2024/01/30 08:47:16;;;;;;;0.15;0.13;;;12.70;92.10;;;;;;5057409;28;20047;-62
2024/01/30 08:49:44;;;;;;;0.00;0.00;;;12.40;91.80;;;;;;5057861;28;20059;-64
2024/01/30 08:52:12;;;;;;;0.00;0.00;;;12.40;91.40;;;;;;5062171;28;20687;-61
2024/01/30 08:54:38;;;;;;;0.00;0.00;;;12.70;90.60;;;;;;5060904;28;20031;-65
2024/01/30 08:57:04;;;;;;;0.00;0.00;;;12.70;90.70;;;;;;5062434;28;20021;-68
2024/01/30 08:59:30;;;;;;;0.00;0.00;;;13.00;91.50;;;;;;5060528;28;20024;-64
2024/01/30 09:01:57;;;;;;;1.17;0.30;;;13.80;88.30;;;;;;5057187;28;20036;-65
2024/01/30 09:04:23;;;;;;;0.20;0.20;;;14.80;86.00;;;;;;5058824;28;20483;-65
2024/01/30 09:06:50;;;;;;;0.00;0.00;;;15.00;83.70;;;;;;5056208;28;20477;-65
2024/01/30 09:09:15;;;;;;;0.00;0.00;;;15.30;81.80;;;;;;5056732;28;20434;-65
2024/01/30 09:11:41;;;;;;;0.08;0.08;;;15.80;80.00;;;;;;5059687;28;20054;-65
2024/01/30 09:14:08;;;;;;;0.20;0.20;;;16.10;77.30;;;;;;5064671;28;20514;-65
2024/01/30 09:16:34;;;;;;;0.10;0.10;;;14.40;80.20;;;;;;5052403;28;20757;-65
2024/01/30 09:19:00;;;;;;;0.40;0.27;;;14.90;81.80;;;;;;5061823;28;20060;-65
2024/01/30 09:21:25;;;;;;;0.00;0.00;;;14.80;80.50;;;;;;5061678;28;20035;-65
2024/01/30 09:23:54;;;;;;;0.90;0.10;;;15.60;79.70;;;;;;5057933;28;20032;-64
2024/01/30 09:26:20;;;;;;;0.00;0.00;;;16.90;76.00;;;;;;5056426;28;20286;-65
2024/01/30 09:28:45;;;;;;;0.00;0.00;;;17.20;73.90;;;;;;5061058;28;20078;-65
2024/01/30 09:31:12;;;;;;;0.00;0.00;;;17.50;72.60;;;;;;5059000;28;20021;-65
2024/01/30 09:33:38;;;;;;;;;;;16.80;72.80;;;;;;5063652;28;20032;-65
2024/01/30 09:36:05;;;;;;;0.00;0.00;;;16.80;72.50;;;;;;5058613;28;20387;-65
2024/01/30 09:38:31;;;;;;;0.20;0.20;;;17.10;71.80;;;;;;5057091;28;20017;-65
2024/01/30 09:41:00;;;;;;;0.00;0.00;;;18.00;70.50;;;;;;5055888;28;20115;-65
2024/01/30 09:43:30;;;;;;;0.00;0.00;;;18.50;68.30;;;;;;5054275;28;20527;-65
2024/01/30 09:45:57;;;;;;;0.00;0.00;;;18.30;69.10;;;;;;5059273;28;20422;-65
2024/01/30 09:48:23;;;;;;;0.00;0.00;;;17.40;67.90;;;;;;5056865;28;20017;-65
2024/01/30 09:50:50;;;;;;;0.17;0.17;;;17.30;69.20;;;;;;5053393;28;20104;-65
2024/01/30 09:53:17;;;;;;;0.20;0.15;;;18.30;68.30;;;;;;5057539;28;20025;-65
2024/01/30 09:55:44;;;;;;;0.00;0.00;;;19.30;66.30;;;;;;5058378;28;20487;-64
2024/01/30 09:58:12;;;;;;;0.15;0.08;;;18.00;66.80;;;;;;5060454;28;20024;-65
2024/01/30 10:00:38;;;;;;;0.00;0.00;;;17.20;68.20;;;;;;5060116;28;20116;-65
2024/01/30 10:03:04;;;;;;;0.00;0.00;;;17.40;67.80;;;;;;5056060;28;20096;-63
2024/01/30 10:05:33;;;;;;;0.00;0.00;;;17.80;67.30;;;;;;5059645;28;20791;-65
2024/01/30 10:07:59;;;;;;;0.00;0.00;;;18.10;66.10;;;;;;5057965;28;20040;-65
2024/01/30 10:10:25;;;;;;;0.00;0.00;;;17.40;67.80;;;;;;5057194;28;20013;-65
2024/01/30 10:12:51;;;;;;;0.00;0.00;;;17.90;67.50;;;;;;5054384;28;20399;-66
2024/01/30 10:15:18;;;;;;;0.00;0.00;;;18.60;66.40;;;;;;5060053;28;20020;-66
2024/01/30 10:17:44;;;;;;;0.00;0.00;;;18.90;65.40;;;;;;5060604;28;20013;-65
2024/01/30 10:20:10;;;;;;;0.05;0.05;;;17.90;66.70;;;;;;5057884;28;20031;-64
2024/01/30 10:22:36;;;;;;;0.05;0.05;;;17.90;66.80;;;;;;5059121;28;20033;-65
2024/01/30 10:25:02;;;;;;;0.07;0.07;;;19.60;65.10;;;;;;5091945;27;20039;-65
2024/01/30 10:27:29;;;;;;;0.00;0.00;;;18.90;64.60;;;;;;5059856;28;20384;-65
2024/01/30 10:29:55;;;;;;;;;;;17.20;66.60;;;;;;5051984;28;20449;-65
2024/01/30 10:32:21;;;;;;;0.05;0.05;;;17.60;66.60;;;;;;5057325;28;19916;-65
2024/01/30 10:34:47;;;;;;;0.00;0.00;;;18.50;65.90;;;;;;5053347;28;20467;-65
2024/01/30 10:37:15;;;;;;;0.40;0.40;;;19.50;64.70;;;;;;5055912;28;20163;-65
2024/01/30 10:39:42;;;;;;;0.43;0.40;;;18.90;63.70;;;;;;5055841;28;20320;-66
2024/01/30 10:42:12;;;;;;;0.00;0.00;;;18.30;64.90;;;;;;5051543;28;20369;-66
2024/01/30 10:45:15;;;;;;;2.60;0.68;;;18.50;65.90;;;;;;5058586;28;20024;-65
2024/01/30 10:47:50;;;;;;;0.00;0.00;;;19.10;64.70;;;;;;5052371;28;20514;-66
2024/01/30 10:50:16;;;;;;;0.10;0.10;;;18.40;64.60;;;;;;5052386;28;20028;-65
2024/01/30 10:52:43;;;;;;;0.00;0.00;;;17.20;66.10;;;;;;5058920;28;20505;-65
2024/01/30 10:55:10;;;;;;;0.85;0.22;;;17.50;66.40;;;;;;5053945;28;20056;-66
2024/01/30 10:57:38;;;;;;;0.00;0.00;;;17.70;65.90;;;;;;5057539;28;20036;-65
2024/01/30 11:00:11;;;;;;;0.00;0.00;;;17.70;65.80;;;;;;5053712;28;20052;-65
2024/01/30 11:02:46;;;;;;;0.00;0.00;;;16.70;66.30;;;;;;5055207;28;20046;-64
2024/01/30 11:05:13;;;;;;;0.00;0.00;;;18.10;66.50;;;;;;5057394;28;20036;-65
2024/01/30 11:07:42;;;;;;;0.00;0.00;;;18.60;65.60;;;;;;5057561;28;20032;-66
2024/01/30 11:10:09;;;;;;;0.00;0.00;;;18.00;64.50;;;;;;5059488;28;20060;-65
2024/01/30 11:12:40;;;;;;;;;;;18.90;64.60;;;;;;5056955;28;20029;-65
2024/01/30 11:15:15;;;;;;;0.10;0.10;;;17.90;65.30;;;;;;5057851;28;20040;-63
2024/01/30 11:17:52;;;;;;;0.03;0.03;;;15.20;68.00;;;;;;5060412;28;20337;-62
2024/01/30 11:20:25;;;;;;;0.00;0.00;;;12.50;74.10;;;;;;5050880;28;20032;-62
2024/01/30 11:22:53;;;;;;;0.00;0.00;;;11.00;77.50;;;;;;5056324;28;20160;-62
2024/01/30 11:25:21;;;;;;;0.00;0.00;;;9.60;82.60;;;;;;5052453;28;20024;-64
2024/01/30 11:27:49;;;;;;;0.00;0.00;;;9.60;85.40;;;;;;5056504;28;20051;-65
2024/01/30 11:30:31;;;;;;;2.40;1.73;;;9.60;85.90;;;;;;5057535;28;20457;-64
2024/01/30 11:33:05;;;;;;;0.00;0.00;;;9.00;88.30;;;;;;5055904;28;20048;-62
2024/01/30 11:35:33;;;;;;;0.47;0.47;;;8.70;90.00;;;;;;5085972;28;20031;-64
2024/01/30 11:37:59;;;;;;;0.10;0.10;;;8.60;89.70;;;;;;5056665;28;20066;-62
2024/01/30 11:40:27;;;;;;;0.13;0.10;;;8.30;90.10;;;;;;5051280;28;20423;-62
2024/01/30 11:42:54;;;;;;;0.00;0.00;;;8.20;90.70;;;;;;5057657;28;20024;-62
2024/01/30 11:45:20;;;;;;;0.00;0.00;;;8.10;91.60;;;;;;5058009;28;20012;-62
2024/01/30 11:47:45;;;;;;;0.00;0.00;;;8.30;91.70;;;;;;5056598;28;20093;-62
2024/01/30 11:50:11;;;;;;;0.10;0.10;;;8.30;91.40;;;;;;5063125;28;20035;-63
2024/01/30 11:52:37;;;;;;;0.03;0.03;;;8.50;91.60;;;;;;5055961;28;20046;-62
2024/01/30 11:55:04;;;;;;;0.10;0.10;;;8.60;91.30;;;;;;5059578;28;20017;-62
2024/01/30 11:57:29;;;;;;;0.00;0.00;;;8.40;91.70;;;;;;5052648;28;20021;-62
2024/01/30 11:59:55;;;;;;;0.00;0.00;;;8.20;92.30;;;;;;5058514;28;20040;-62
2024/01/30 12:02:21;;;;;;;0.20;0.20;;;8.10;92.60;;;;;;5054316;28;21478;-63
2024/01/30 12:04:47;;;;;;;0.00;0.00;;;8.20;92.80;;;;;;5059739;28;20027;-64
2024/01/30 12:07:15;;;;;;;0.00;0.00;;;8.30;92.80;;;;;;5057775;28;20669;-63
2024/01/30 12:09:42;;;;;;;0.32;0.32;;;8.40;93.00;;;;;;5052302;28;20264;-62
2024/01/30 12:12:11;;;;;;;0.00;0.00;;;8.30;93.30;;;;;;5055693;28;20016;-62
2024/01/30 12:14:39;;;;;;;1.98;1.17;;;8.40;93.70;;;;;;5058907;28;20056;-62
2024/01/30 12:17:05;;;;;;;0.00;0.00;;;8.20;93.90;;;;;;5056028;28;20570;-62
2024/01/30 12:19:30;;;;;;;0.00;0.00;;;8.10;94.50;;;;;;5058627;28;20116;-63
2024/01/30 12:21:58;;;;;;;0.27;0.27;;;7.80;95.10;;;;;;5059858;28;20526;-62
2024/01/30 12:24:26;;;;;;;0.30;0.30;;;7.70;95.70;;;;;;5058073;28;20583;-62
2024/01/30 12:26:56;;;;;;;0.00;0.00;;;7.80;95.90;;;;;;5059972;28;20024;-62
2024/01/30 12:29:22;;;;;;;0.00;0.00;;;7.80;96.10;;;;;;5059666;28;20078;-62
2024/01/30 12:31:47;;;;;;;0.00;0.00;;;7.70;96.70;;;;;;5059641;28;20024;-62
2024/01/30 12:34:17;;;;;;;0.17;0.17;;;7.60;96.90;;;;;;5059599;28;20418;-62
2024/01/30 12:36:43;;;;;;;0.85;0.47;;;7.50;97.40;;;;;;5059575;28;20021;-62
2024/01/30 12:39:14;;;;;;;;;;;7.60;97.90;;;;;;5063539;28;20034;-62
2024/01/30 12:41:40;;;;;;;0.00;0.00;;;7.70;97.00;;;;;;5060169;28;19955;-62
2024/01/30 12:44:06;;;;;;;0.00;0.00;;;7.80;97.30;;;;;;5053705;28;20110;-62
2024/01/30 12:46:33;;;;;;;0.00;0.00;;;7.60;97.70;;;;;;5062602;28;20025;-62
2024/01/30 12:48:59;;;;;;;0.00;0.00;;;7.60;97.90;;;;;;5061444;28;20033;-63
2024/01/30 12:51:25;;;;;;;0.00;0.00;;;7.80;98.10;;;;;;5060770;28;20064;-62
2024/01/30 12:53:50;;;;;;;0.00;0.00;;;8.00;97.70;;;;;;5054654;28;20028;-64
2024/01/30 12:56:16;;;;;;;0.00;0.00;;;8.00;97.30;;;;;;5062126;28;20024;-63
2024/01/30 12:58:42;;;;;;;0.77;0.77;;;7.90;97.90;;;;;;5058586;28;20344;-64